sensor_id;sensor_type;location;lat;lon;timestamp;pressure;altitude;pressure_sealevel;temperature;humidity
56944;BME280;42848;42.524;12.052;2023-04-28T00:01:20;97026.53;;;13.10;100.00
56944;BME280;42848;42.524;12.052;2023-04-28T00:03:46;97020.28;;;13.09;100.00
56944;BME280;42848;42.524;12.052;2023-04-28T00:06:13;97016.13;;;13.03;100.00
56944;BME280;42848;42.524;12.052;2023-04-28T00:08:39;97017.66;;;12.84;100.00
56944;BME280;42848;42.524;12.052;2023-04-28T00:11:09;97021.66;;;12.86;100.00
56944;BME280;42848;42.524;12.052;2023-04-28T00:13:35;97017.38;;;12.76;100.00
56944;BME280;42848;42.524;12.052;2023-04-28T00:16:01;97016.63;;;12.97;100.00
56944;BME280;42848;42.524;12.052;2023-04-28T00:18:27;97018.75;;;12.91;100.00
56944;BME280;42848;42.524;12.052;2023-04-28T00:20:54;97030.81;;;12.81;100.00
56944;BME280;42848;42.524;12.052;2023-04-28T00:23:20;97022.03;;;12.67;100.00
56944;BME280;42848;42.524;12.052;2023-04-28T00:25:52;97026.00;;;12.78;100.00
56944;BME280;42848;42.524;12.052;2023-04-28T00:28:18;97021.94;;;12.93;100.00
56944;BME280;42848;42.524;12.052;2023-04-28T00:30:44;97020.34;;;12.92;100.00
56944;BME280;42848;42.524;12.052;2023-04-28T00:33:09;97013.34;;;12.82;100.00
56944;BME280;42848;42.524;12.052;2023-04-28T00:35:35;97011.75;;;12.35;100.00
56944;BME280;42848;42.524;12.052;2023-04-28T00:38:01;97012.56;;;12.73;100.00
56944;BME280;42848;42.524;12.052;2023-04-28T00:40:34;97006.34;;;12.73;100.00
56944;BME280;42848;42.524;12.052;2023-04-28T00:43:00;97011.34;;;12.62;100.00
56944;BME280;42848;42.524;12.052;2023-04-28T00:45:26;97009.72;;;12.61;100.00
56944;BME280;42848;42.524;12.052;2023-04-28T00:47:51;97008.91;;;12.61;100.00
56944;BME280;42848;42.524;12.052;2023-04-28T00:50:17;97009.78;;;12.44;100.00
56944;BME280;42848;42.524;12.052;2023-04-28T00:52:43;97006.88;;;12.49;100.00
56944;BME280;42848;42.524;12.052;2023-04-28T00:55:09;97009.44;;;12.54;100.00
56944;BME280;42848;42.524;12.052;2023-04-28T00:57:35;97012.13;;;12.63;100.00
56944;BME280;42848;42.524;12.052;2023-04-28T01:00:02;97011.53;;;12.48;100.00
56944;BME280;42848;42.524;12.052;2023-04-28T01:02:28;97012.81;;;12.42;100.00
56944;BME280;42848;42.524;12.052;2023-04-28T01:04:58;97012.47;;;12.52;100.00
56944;BME280;42848;42.524;12.052;2023-04-28T01:07:24;97011.66;;;12.52;100.00
56944;BME280;42848;42.524;12.052;2023-04-28T01:09:50;97012.78;;;12.60;100.00
56944;BME280;42848;42.524;12.052;2023-04-28T01:12:16;97013.06;;;12.11;100.00
56944;BME280;42848;42.524;12.052;2023-04-28T01:14:41;97017.13;;;12.52;100.00
56944;BME280;42848;42.524;12.052;2023-04-28T01:17:07;97017.41;;;12.59;100.00
56944;BME280;42848;42.524;12.052;2023-04-28T01:19:33;97011.16;;;12.67;100.00
56944;BME280;42848;42.524;12.052;2023-04-28T01:21:59;97018.75;;;12.53;100.00
56944;BME280;42848;42.524;12.052;2023-04-28T01:24:25;97020.78;;;12.65;100.00
56944;BME280;42848;42.524;12.052;2023-04-28T01:26:51;97026.44;;;12.34;100.00
56944;BME280;42848;42.524;12.052;2023-04-28T01:29:17;97023.22;;;12.49;100.00
56944;BME280;42848;42.524;12.052;2023-04-28T01:31:42;97029.78;;;12.57;100.00
56944;BME280;42848;42.524;12.052;2023-04-28T01:34:08;97022.69;;;12.73;100.00
56944;BME280;42848;42.524;12.052;2023-04-28T01:36:34;97021.28;;;12.58;100.00
56944;BME280;42848;42.524;12.052;2023-04-28T01:38:59;97029.28;;;12.63;100.00
56944;BME280;42848;42.524;12.052;2023-04-28T01:41:25;97018.50;;;12.75;100.00
56944;BME280;42848;42.524;12.052;2023-04-28T01:43:51;97019.63;;;12.74;100.00
56944;BME280;42848;42.524;12.052;2023-04-28T01:46:17;97025.56;;;12.68;100.00
56944;BME280;42848;42.524;12.052;2023-04-28T01:48:42;97020.03;;;12.47;100.00
56944;BME280;42848;42.524;12.052;2023-04-28T01:51:08;97024.06;;;12.32;100.00
56944;BME280;42848;42.524;12.052;2023-04-28T01:53:34;97023.28;;;12.23;100.00
56944;BME280;42848;42.524;12.052;2023-04-28T01:55:59;97027.28;;;12.26;100.00
56944;BME280;42848;42.524;12.052;2023-04-28T01:58:25;97026.63;;;12.29;100.00
56944;BME280;42848;42.524;12.052;2023-04-28T02:00:51;97026.91;;;12.53;100.00
56944;BME280;42848;42.524;12.052;2023-04-28T02:03:16;97025.31;;;12.43;100.00
56944;BME280;42848;42.524;12.052;2023-04-28T02:05:42;97033.03;;;12.15;100.00
56944;BME280;42848;42.524;12.052;2023-04-28T02:08:08;97027.28;;;12.26;100.00
56944;BME280;42848;42.524;12.052;2023-04-28T02:10:33;97026.19;;;12.18;100.00
56944;BME280;42848;42.524;12.052;2023-04-28T02:12:59;97028.91;;;12.18;100.00
56944;BME280;42848;42.524;12.052;2023-04-28T02:15:25;97033.22;;;11.84;100.00
56944;BME280;42848;42.524;12.052;2023-04-28T02:17:51;97034.81;;;12.11;100.00
56944;BME280;42848;42.524;12.052;2023-04-28T02:20:16;97036.75;;;12.19;100.00
56944;BME280;42848;42.524;12.052;2023-04-28T02:22:42;97040.13;;;12.16;100.00
56944;BME280;42848;42.524;12.052;2023-04-28T02:25:08;97041.22;;;12.15;100.00
56944;BME280;42848;42.524;12.052;2023-04-28T02:27:35;97046.03;;;12.18;100.00
56944;BME280;42848;42.524;12.052;2023-04-28T02:30:06;97051.47;;;12.01;100.00
56944;BME280;42848;42.524;12.052;2023-04-28T02:32:32;97048.75;;;11.92;100.00
56944;BME280;42848;42.524;12.052;2023-04-28T02:34:58;97044.56;;;11.78;100.00
56944;BME280;42848;42.524;12.052;2023-04-28T02:37:24;97043.00;;;11.94;100.00
56944;BME280;42848;42.524;12.052;2023-04-28T02:39:50;97042.19;;;12.02;100.00
56944;BME280;42848;42.524;12.052;2023-04-28T02:42:16;97039.94;;;11.87;100.00
56944;BME280;42848;42.524;12.052;2023-04-28T02:44:41;97042.19;;;12.02;100.00
56944;BME280;42848;42.524;12.052;2023-04-28T02:47:07;97034.19;;;11.97;100.00
56944;BME280;42848;42.524;12.052;2023-04-28T02:49:33;97026.34;;;11.95;100.00
56944;BME280;42848;42.524;12.052;2023-04-28T02:51:58;97035.63;;;11.94;100.00
56944;BME280;42848;42.524;12.052;2023-04-28T02:54:24;97031.97;;;11.99;100.00
56944;BME280;42848;42.524;12.052;2023-04-28T02:56:53;97033.72;;;11.95;100.00
56944;BME280;42848;42.524;12.052;2023-04-28T02:59:20;97027.75;;;11.76;100.00
56944;BME280;42848;42.524;12.052;2023-04-28T03:01:46;97032.56;;;11.61;100.00
56944;BME280;42848;42.524;12.052;2023-04-28T03:04:13;97032.56;;;11.61;100.00
56944;BME280;42848;42.524;12.052;2023-04-28T03:06:39;97036.59;;;11.81;100.00
56944;BME280;42848;42.524;12.052;2023-04-28T03:09:04;97038.34;;;11.86;100.00
56944;BME280;42848;42.524;12.052;2023-04-28T03:11:31;97037.88;;;11.84;100.00
56944;BME280;42848;42.524;12.052;2023-04-28T03:13:57;97042.16;;;11.67;100.00
56944;BME280;42848;42.524;12.052;2023-04-28T03:16:22;97035.06;;;11.32;100.00
56944;BME280;42848;42.524;12.052;2023-04-28T03:18:48;97038.31;;;11.68;100.00
56944;BME280;42848;42.524;12.052;2023-04-28T03:21:14;97039.63;;;11.71;100.00
56944;BME280;42848;42.524;12.052;2023-04-28T03:23:39;97033.19;;;11.58;100.00
56944;BME280;42848;42.524;12.052;2023-04-28T03:26:06;97041.69;;;11.74;100.00
56944;BME280;42848;42.524;12.052;2023-04-28T03:28:32;97034.31;;;11.57;100.00
56944;BME280;42848;42.524;12.052;2023-04-28T03:30:58;97038.28;;;11.51;100.00
56944;BME280;42848;42.524;12.052;2023-04-28T03:33:23;97047.91;;;11.75;100.00
56944;BME280;42848;42.524;12.052;2023-04-28T03:35:49;97040.53;;;11.49;100.00
56944;BME280;42848;42.524;12.052;2023-04-28T03:38:15;97053.69;;;11.64;100.00
56944;BME280;42848;42.524;12.052;2023-04-28T03:40:41;97046.78;;;11.50;100.00
56944;BME280;42848;42.524;12.052;2023-04-28T03:43:06;97045.19;;;11.57;100.00
56944;BME280;42848;42.524;12.052;2023-04-28T03:45:32;97042.63;;;11.69;100.00
56944;BME280;42848;42.524;12.052;2023-04-28T03:47:58;97047.59;;;11.67;100.00
56944;BME280;42848;42.524;12.052;2023-04-28T03:50:24;97042.59;;;11.35;100.00
56944;BME280;42848;42.524;12.052;2023-04-28T03:52:49;97043.19;;;11.23;100.00
56944;BME280;42848;42.524;12.052;2023-04-28T03:55:15;97045.78;;;11.28;100.00
56944;BME280;42848;42.524;12.052;2023-04-28T03:57:41;97038.75;;;11.36;100.00
56944;BME280;42848;42.524;12.052;2023-04-28T04:00:07;97034.94;;;11.46;100.00
56944;BME280;42848;42.524;12.052;2023-04-28T04:02:34;97039.84;;;11.18;100.00
56944;BME280;42848;42.524;12.052;2023-04-28T04:05:00;97042.63;;;11.52;100.00
56944;BME280;42848;42.524;12.052;2023-04-28T04:07:26;97043.56;;;11.39;100.00
56944;BME280;42848;42.524;12.052;2023-04-28T04:09:51;97037.97;;;11.35;100.00
56944;BME280;42848;42.524;12.052;2023-04-28T04:12:17;97036.16;;;11.22;100.00
56944;BME280;42848;42.524;12.052;2023-04-28T04:14:43;97040.03;;;11.30;100.00
56944;BME280;42848;42.524;12.052;2023-04-28T04:17:08;97037.97;;;11.35;100.00
56944;BME280;42848;42.524;12.052;2023-04-28T04:19:34;97052.66;;;11.26;100.00
56944;BME280;42848;42.524;12.052;2023-04-28T04:22:00;97043.72;;;11.34;100.00
56944;BME280;42848;42.524;12.052;2023-04-28T04:24:25;97047.06;;;11.31;100.00
56944;BME280;42848;42.524;12.052;2023-04-28T04:26:51;97054.44;;;11.48;100.00
56944;BME280;42848;42.524;12.052;2023-04-28T04:29:17;97039.25;;;11.38;100.00
56944;BME280;42848;42.524;12.052;2023-04-28T04:31:43;97048.44;;;11.11;100.00
56944;BME280;42848;42.524;12.052;2023-04-28T04:34:10;97051.38;;;11.32;100.00
56944;BME280;42848;42.524;12.052;2023-04-28T04:36:36;97055.84;;;11.28;100.00
56944;BME280;42848;42.524;12.052;2023-04-28T04:39:02;97060.94;;;11.21;100.00
56944;BME280;42848;42.524;12.052;2023-04-28T04:41:28;97068.97;;;11.26;100.00
56944;BME280;42848;42.524;12.052;2023-04-28T04:43:53;97058.59;;;11.36;100.00
56944;BME280;42848;42.524;12.052;2023-04-28T04:46:19;97067.97;;;11.22;100.00
56944;BME280;42848;42.524;12.052;2023-04-28T04:48:45;97070.06;;;11.25;100.00
56944;BME280;42848;42.524;12.052;2023-04-28T04:51:11;97075.41;;;11.47;100.00
56944;BME280;42848;42.524;12.052;2023-04-28T04:53:37;97070.59;;;11.44;100.00
56944;BME280;42848;42.524;12.052;2023-04-28T04:56:02;97071.34;;;11.27;100.00
56944;BME280;42848;42.524;12.052;2023-04-28T04:58:28;97076.94;;;11.31;100.00
56944;BME280;42848;42.524;12.052;2023-04-28T05:00:54;97084.97;;;11.36;100.00
56944;BME280;42848;42.524;12.052;2023-04-28T05:03:19;97084.16;;;11.27;100.00
56944;BME280;42848;42.524;12.052;2023-04-28T05:05:46;97078.53;;;11.32;100.00
56944;BME280;42848;42.524;12.052;2023-04-28T05:08:13;97082.38;;;11.31;100.00
56944;BME280;42848;42.524;12.052;2023-04-28T05:10:39;97079.59;;;11.14;100.00
56944;BME280;42848;42.524;12.052;2023-04-28T05:13:04;97078.94;;;10.99;100.00
56944;BME280;42848;42.524;12.052;2023-04-28T05:15:30;97088.03;;;11.52;100.00
56944;BME280;42848;42.524;12.052;2023-04-28T05:17:56;97092.22;;;11.66;100.00
56944;BME280;42848;42.524;12.052;2023-04-28T05:20:22;97095.25;;;11.56;100.00
56944;BME280;42848;42.524;12.052;2023-04-28T05:22:48;97096.19;;;11.43;100.00
56944;BME280;42848;42.524;12.052;2023-04-28T05:25:14;97095.66;;;11.32;100.00
56944;BME280;42848;42.524;12.052;2023-04-28T05:27:39;97094.16;;;11.66;100.00
56944;BME280;42848;42.524;12.052;2023-04-28T05:30:07;97082.78;;;11.64;100.00
56944;BME280;42848;42.524;12.052;2023-04-28T05:32:34;97088.84;;;11.69;100.00
56944;BME280;42848;42.524;12.052;2023-04-28T05:35:00;97086.94;;;11.61;100.00
56944;BME280;42848;42.524;12.052;2023-04-28T05:37:26;97083.91;;;11.63;100.00
56944;BME280;42848;42.524;12.052;2023-04-28T05:39:51;97092.06;;;11.54;100.00
56944;BME280;42848;42.524;12.052;2023-04-28T05:42:17;97085.84;;;11.62;100.00
56944;BME280;42848;42.524;12.052;2023-04-28T05:44:43;97088.25;;;11.73;100.00
56944;BME280;42848;42.524;12.052;2023-04-28T05:47:08;97091.31;;;11.80;100.00
56944;BME280;42848;42.524;12.052;2023-04-28T05:49:35;97085.06;;;12.05;100.00
56944;BME280;42848;42.524;12.052;2023-04-28T05:52:01;97095.03;;;12.10;100.00
56944;BME280;42848;42.524;12.052;2023-04-28T05:54:27;97097.25;;;11.99;100.00
56944;BME280;42848;42.524;12.052;2023-04-28T05:56:52;97107.31;;;12.16;100.00
56944;BME280;42848;42.524;12.052;2023-04-28T05:59:18;97103.00;;;12.23;100.00
56944;BME280;42848;42.524;12.052;2023-04-28T06:01:44;97100.94;;;12.38;100.00
56944;BME280;42848;42.524;12.052;2023-04-28T06:04:10;97108.91;;;12.43;100.00
56944;BME280;42848;42.524;12.052;2023-04-28T06:06:36;97107.50;;;12.19;100.00
56944;BME280;42848;42.524;12.052;2023-04-28T06:09:02;97109.75;;;12.35;100.00
56944;BME280;42848;42.524;12.052;2023-04-28T06:11:28;97096.56;;;12.63;100.00
56944;BME280;42848;42.524;12.052;2023-04-28T06:13:53;97109.81;;;12.81;100.00
56944;BME280;42848;42.524;12.052;2023-04-28T06:16:19;97113.19;;;12.78;100.00
56944;BME280;42848;42.524;12.052;2023-04-28T06:18:45;97115.63;;;12.63;100.00
56944;BME280;42848;42.524;12.052;2023-04-28T06:21:11;97111.91;;;12.76;100.00
56944;BME280;42848;42.524;12.052;2023-04-28T06:23:37;97122.66;;;12.81;100.00
56944;BME280;42848;42.524;12.052;2023-04-28T06:26:05;97124.53;;;12.89;100.00
56944;BME280;42848;42.524;12.052;2023-04-28T06:28:30;97133.03;;;12.88;100.00
56944;BME280;42848;42.524;12.052;2023-04-28T06:30:56;97132.09;;;12.84;100.00
56944;BME280;42848;42.524;12.052;2023-04-28T06:33:24;97138.47;;;12.88;100.00
56944;BME280;42848;42.524;12.052;2023-04-28T06:35:50;97134.59;;;13.06;100.00
56944;BME280;42848;42.524;12.052;2023-04-28T06:38:15;97138.41;;;13.14;100.00
56944;BME280;42848;42.524;12.052;2023-04-28T06:40:41;97142.09;;;13.18;100.00
56944;BME280;42848;42.524;12.052;2023-04-28T06:43:07;97135.88;;;13.08;100.00
56944;BME280;42848;42.524;12.052;2023-04-28T06:45:32;97145.78;;;13.22;100.00
56944;BME280;42848;42.524;12.052;2023-04-28T06:47:58;97133.56;;;13.36;100.00
56944;BME280;42848;42.524;12.052;2023-04-28T06:50:24;97137.59;;;13.30;100.00
56944;BME280;42848;42.524;12.052;2023-04-28T06:52:50;97144.63;;;13.31;100.00
56944;BME280;42848;42.524;12.052;2023-04-28T06:55:16;97157.25;;;13.45;100.00
56944;BME280;42848;42.524;12.052;2023-04-28T06:57:42;97149.53;;;13.47;100.00
56944;BME280;42848;42.524;12.052;2023-04-28T07:00:09;97151.81;;;13.45;100.00
56944;BME280;42848;42.524;12.052;2023-04-28T07:02:35;97157.25;;;13.45;100.00
56944;BME280;42848;42.524;12.052;2023-04-28T07:05:01;97160.28;;;13.43;94.25
56944;BME280;42848;42.524;12.052;2023-04-28T07:07:28;97158.63;;;13.59;100.00
56944;BME280;42848;42.524;12.052;2023-04-28T07:09:54;97158.91;;;13.66;100.00
56944;BME280;42848;42.524;12.052;2023-04-28T07:12:21;97167.94;;;13.58;91.26
56944;BME280;42848;42.524;12.052;2023-04-28T07:14:47;97168.06;;;13.62;93.40
56944;BME280;42848;42.524;12.052;2023-04-28T07:17:13;97166.09;;;13.71;96.35
56944;BME280;42848;42.524;12.052;2023-04-28T07:19:39;97164.63;;;13.82;97.98
56944;BME280;42848;42.524;12.052;2023-04-28T07:22:05;97172.97;;;13.77;93.40
56944;BME280;42848;42.524;12.052;2023-04-28T07:24:30;97169.88;;;13.87;94.06
56944;BME280;42848;42.524;12.052;2023-04-28T07:26:56;97157.34;;;13.86;92.13
56944;BME280;42848;42.524;12.052;2023-04-28T07:29:22;97170.16;;;13.65;87.27
56944;BME280;42848;42.524;12.052;2023-04-28T07:31:48;97170.41;;;13.81;84.94
56944;BME280;42848;42.524;12.052;2023-04-28T07:34:14;97159.84;;;13.71;73.48
56944;BME280;42848;42.524;12.052;2023-04-28T07:36:40;97161.78;;;13.70;77.29
56944;BME280;42848;42.524;12.052;2023-04-28T07:39:06;97167.81;;;14.05;86.82
56944;BME280;42848;42.524;12.052;2023-04-28T07:41:36;97183.41;;;14.05;81.28
56944;BME280;42848;42.524;12.052;2023-04-28T07:44:04;97172.47;;;13.84;79.55
56944;BME280;42848;42.524;12.052;2023-04-28T07:46:31;97172.81;;;13.82;77.05
56944;BME280;42848;42.524;12.052;2023-04-28T07:48:56;97178.00;;;13.96;85.69
56944;BME280;42848;42.524;12.052;2023-04-28T07:51:23;97181.06;;;13.94;76.29
56944;BME280;42848;42.524;12.052;2023-04-28T07:53:48;97165.25;;;14.09;77.09
56944;BME280;42848;42.524;12.052;2023-04-28T07:56:14;97163.31;;;14.09;75.25
56944;BME280;42848;42.524;12.052;2023-04-28T07:58:40;97169.19;;;14.41;78.96
56944;BME280;42848;42.524;12.052;2023-04-28T08:01:06;97164.34;;;14.67;80.46
56944;BME280;42848;42.524;12.052;2023-04-28T08:03:31;97166.34;;;14.37;76.30
56944;BME280;42848;42.524;12.052;2023-04-28T08:05:57;97163.72;;;14.41;62.26
56944;BME280;42848;42.524;12.052;2023-04-28T08:08:23;97162.31;;;14.35;59.59
56944;BME280;42848;42.524;12.052;2023-04-28T08:10:49;97157.47;;;14.40;53.01
56944;BME280;42848;42.524;12.052;2023-04-28T08:13:15;97161.50;;;14.34;52.40
56944;BME280;42848;42.524;12.052;2023-04-28T08:15:41;97164.19;;;14.43;51.17
56944;BME280;42848;42.524;12.052;2023-04-28T08:18:07;97159.28;;;14.36;52.89
56944;BME280;42848;42.524;12.052;2023-04-28T08:20:33;97170.63;;;14.80;61.11
56944;BME280;42848;42.524;12.052;2023-04-28T08:22:59;97173.63;;;14.87;58.80
56944;BME280;42848;42.524;12.052;2023-04-28T08:25:25;97161.22;;;14.57;54.30
56944;BME280;42848;42.524;12.052;2023-04-28T08:27:51;97160.31;;;14.86;62.87
56944;BME280;42848;42.524;12.052;2023-04-28T08:30:16;97155.13;;;14.72;54.24
56944;BME280;42848;42.524;12.052;2023-04-28T08:32:42;97155.59;;;14.74;55.74
56944;BME280;42848;42.524;12.052;2023-04-28T08:35:08;97158.94;;;14.59;55.96
56944;BME280;42848;42.524;12.052;2023-04-28T08:37:34;97160.41;;;14.89;58.60
56944;BME280;42848;42.524;12.052;2023-04-28T08:40:00;97169.19;;;14.83;55.75
56944;BME280;42848;42.524;12.052;2023-04-28T08:42:30;97172.56;;;15.13;62.32
56944;BME280;42848;42.524;12.052;2023-04-28T08:44:57;97163.63;;;14.91;58.80
56944;BME280;42848;42.524;12.052;2023-04-28T08:47:36;97160.94;;;15.03;57.06
56944;BME280;42848;42.524;12.052;2023-04-28T08:50:21;97153.19;;;15.18;57.34
56944;BME280;42848;42.524;12.052;2023-04-28T08:52:47;97161.00;;;15.28;61.00
56944;BME280;42848;42.524;12.052;2023-04-28T08:55:17;97151.25;;;15.76;65.13
56944;BME280;42848;42.524;12.052;2023-04-28T08:57:49;97146.88;;;15.62;60.93
56944;BME280;42848;42.524;12.052;2023-04-28T09:00:18;97147.53;;;15.35;57.68
56944;BME280;42848;42.524;12.052;2023-04-28T09:02:44;97159.78;;;15.62;63.25
56944;BME280;42848;42.524;12.052;2023-04-28T09:05:11;97161.84;;;15.77;60.55
56944;BME280;42848;42.524;12.052;2023-04-28T09:07:37;97157.41;;;15.85;62.72
56944;BME280;42848;42.524;12.052;2023-04-28T09:10:22;97173.06;;;16.25;66.26
56944;BME280;42848;42.524;12.052;2023-04-28T09:12:51;97155.00;;;15.71;54.06
56944;BME280;42848;42.524;12.052;2023-04-28T09:15:37;97155.44;;;16.10;64.13
56944;BME280;42848;42.524;12.052;2023-04-28T09:18:06;97160.34;;;16.04;61.42
56944;BME280;42848;42.524;12.052;2023-04-28T09:20:34;97160.91;;;15.98;58.74
56944;BME280;42848;42.524;12.052;2023-04-28T09:23:19;97166.63;;;15.92;57.84
56944;BME280;42848;42.524;12.052;2023-04-28T09:28:22;97168.84;;;16.27;67.28
56944;BME280;42848;42.524;12.052;2023-04-28T09:30:48;97164.31;;;16.59;69.02
56944;BME280;42848;42.524;12.052;2023-04-28T09:33:13;97167.13;;;17.03;71.82
56944;BME280;42848;42.524;12.052;2023-04-28T09:35:41;97173.16;;;16.81;62.12
56944;BME280;42848;42.524;12.052;2023-04-28T09:38:08;97171.66;;;16.43;58.89
56944;BME280;42848;42.524;12.052;2023-04-28T09:40:50;97170.78;;;16.39;57.16
56944;BME280;42848;42.524;12.052;2023-04-28T09:43:27;97175.41;;;16.50;55.06
56944;BME280;42848;42.524;12.052;2023-04-28T09:45:55;97169.78;;;16.71;62.00
56944;BME280;42848;42.524;12.052;2023-04-28T09:48:34;97166.44;;;17.06;57.94
56944;BME280;42848;42.524;12.052;2023-04-28T09:51:02;97161.25;;;16.89;54.56
56944;BME280;42848;42.524;12.052;2023-04-28T09:53:29;97167.50;;;17.17;63.69
56944;BME280;42848;42.524;12.052;2023-04-28T09:55:57;97155.66;;;17.13;60.64
56944;BME280;42848;42.524;12.052;2023-04-28T09:58:24;97158.06;;;17.30;58.87
56944;BME280;42848;42.524;12.052;2023-04-28T10:00:55;97153.28;;;17.43;59.94
56944;BME280;42848;42.524;12.052;2023-04-28T10:03:23;97149.25;;;17.09;64.03
56944;BME280;42848;42.524;12.052;2023-04-28T10:05:49;97154.38;;;16.95;65.93
56944;BME280;42848;42.524;12.052;2023-04-28T10:08:20;97159.97;;;17.14;66.03
56944;BME280;42848;42.524;12.052;2023-04-28T10:10:48;97162.16;;;17.09;70.55
56944;BME280;42848;42.524;12.052;2023-04-28T10:13:18;97160.22;;;17.09;72.90
56944;BME280;42848;42.524;12.052;2023-04-28T10:15:48;97158.28;;;16.94;72.16
56944;BME280;42848;42.524;12.052;2023-04-28T10:18:14;97157.88;;;16.80;75.25
56944;BME280;42848;42.524;12.052;2023-04-28T10:20:46;97149.53;;;17.04;82.79
56944;BME280;42848;42.524;12.052;2023-04-28T10:25:55;97143.97;;;17.16;90.31
56944;BME280;42848;42.524;12.052;2023-04-28T10:28:22;97143.09;;;17.12;90.79
56944;BME280;42848;42.524;12.052;2023-04-28T10:31:08;97144.41;;;17.18;95.85
56944;BME280;42848;42.524;12.052;2023-04-28T10:33:34;97138.44;;;17.00;95.23
56944;BME280;42848;42.524;12.052;2023-04-28T10:35:59;97139.66;;;17.31;95.81
56944;BME280;42848;42.524;12.052;2023-04-28T10:38:25;97136.53;;;17.32;95.96
56944;BME280;42848;42.524;12.052;2023-04-28T10:40:52;97133.53;;;17.22;96.66
56944;BME280;42848;42.524;12.052;2023-04-28T10:56:15;97135.31;;;17.93;100.00
56944;BME280;42848;42.524;12.052;2023-04-28T10:58:49;97134.28;;;18.01;100.00
56944;BME280;42848;42.524;12.052;2023-04-28T11:04:07;97125.84;;;17.59;100.00
56944;BME280;42848;42.524;12.052;2023-04-28T11:06:41;97118.84;;;17.77;100.00
56944;BME280;42848;42.524;12.052;2023-04-28T11:12:04;97118.19;;;18.19;100.00
56944;BME280;42848;42.524;12.052;2023-04-28T11:14:36;97125.72;;;18.03;100.00
56944;BME280;42848;42.524;12.052;2023-04-28T11:17:04;97132.84;;;17.72;100.00
56944;BME280;42848;42.524;12.052;2023-04-28T11:19:41;97127.44;;;17.76;100.00
56944;BME280;42848;42.524;12.052;2023-04-28T11:22:20;97117.66;;;17.62;100.00
56944;BME280;42848;42.524;12.052;2023-04-28T11:25:01;97113.78;;;17.63;100.00
56944;BME280;42848;42.524;12.052;2023-04-28T11:27:32;97103.56;;;17.96;100.00
56944;BME280;42848;42.524;12.052;2023-04-28T11:29:58;97107.06;;;18.12;100.00
56944;BME280;42848;42.524;12.052;2023-04-28T11:32:28;97112.63;;;18.15;100.00
56944;BME280;42848;42.524;12.052;2023-04-28T11:34:54;97112.69;;;18.19;100.00
56944;BME280;42848;42.524;12.052;2023-04-28T11:37:20;97106.56;;;18.26;100.00
56944;BME280;42848;42.524;12.052;2023-04-28T11:39:47;97115.16;;;18.05;100.00
56944;BME280;42848;42.524;12.052;2023-04-28T11:42:13;97102.94;;;18.02;100.00
56944;BME280;42848;42.524;12.052;2023-04-28T11:44:40;97109.94;;;18.00;100.00
56944;BME280;42848;42.524;12.052;2023-04-28T11:47:06;97112.66;;;18.00;100.00
56944;BME280;42848;42.524;12.052;2023-04-28T11:49:44;97116.53;;;18.14;100.00
56944;BME280;42848;42.524;12.052;2023-04-28T11:52:10;97119.63;;;17.94;100.00
56944;BME280;42848;42.524;12.052;2023-04-28T11:54:37;97114.84;;;18.10;100.00
56944;BME280;42848;42.524;12.052;2023-04-28T11:57:04;97115.59;;;18.26;100.00
56944;BME280;42848;42.524;12.052;2023-04-28T11:59:32;97112.97;;;17.95;100.00
56944;BME280;42848;42.524;12.052;2023-04-28T12:02:00;97108.56;;;18.09;100.00
56944;BME280;42848;42.524;12.052;2023-04-28T12:07:09;97108.91;;;18.43;100.00
56944;BME280;42848;42.524;12.052;2023-04-28T12:09:47;97096.53;;;18.33;100.00
56944;BME280;42848;42.524;12.052;2023-04-28T12:12:15;97102.88;;;18.37;100.00
56944;BME280;42848;42.524;12.052;2023-04-28T12:14:59;97097.69;;;18.52;100.00
56944;BME280;42848;42.524;12.052;2023-04-28T12:17:40;97090.25;;;18.71;100.00
56944;BME280;42848;42.524;12.052;2023-04-28T12:20:07;97090.19;;;18.68;100.00
56944;BME280;42848;42.524;12.052;2023-04-28T12:22:49;97084.69;;;18.68;100.00
56944;BME280;42848;42.524;12.052;2023-04-28T12:25:17;97094.53;;;18.92;100.00
56944;BME280;42848;42.524;12.052;2023-04-28T12:28:05;97083.53;;;18.69;99.16
56944;BME280;42848;42.524;12.052;2023-04-28T12:30:36;97092.03;;;18.44;100.00
56944;BME280;42848;42.524;12.052;2023-04-28T12:33:25;97081.28;;;18.97;100.00
56944;BME280;42848;42.524;12.052;2023-04-28T12:35:52;97087.13;;;19.15;96.02
56944;BME280;42848;42.524;12.052;2023-04-28T12:38:22;97083.22;;;18.74;99.40
56944;BME280;42848;42.524;12.052;2023-04-28T12:40:48;97075.44;;;19.22;98.47
56944;BME280;42848;42.524;12.052;2023-04-28T12:43:13;97088.34;;;19.18;94.88
56944;BME280;42848;42.524;12.052;2023-04-28T12:45:40;97088.47;;;19.02;98.57
56944;BME280;42848;42.524;12.052;2023-04-28T12:48:06;97081.16;;;18.90;97.91
56944;BME280;42848;42.524;12.052;2023-04-28T12:50:32;97084.41;;;18.96;94.69
56944;BME280;42848;42.524;12.052;2023-04-28T12:52:58;97078.13;;;18.95;96.44
56944;BME280;42848;42.524;12.052;2023-04-28T12:55:24;97074.28;;;19.23;97.79
56944;BME280;42848;42.524;12.052;2023-04-28T12:57:50;97075.38;;;19.18;97.74
56944;BME280;42848;42.524;12.052;2023-04-28T13:00:16;97080.94;;;19.22;94.91
56944;BME280;42848;42.524;12.052;2023-04-28T13:02:45;97072.31;;;19.23;94.16
56944;BME280;42848;42.524;12.052;2023-04-28T13:05:11;97076.06;;;19.57;94.79
56944;BME280;42848;42.524;12.052;2023-04-28T13:07:38;97081.28;;;19.43;97.04
56944;BME280;42848;42.524;12.052;2023-04-28T13:10:05;97076.41;;;19.33;95.27